Padre Island — WDB4436 — position and weather

sailwx.info

Track history (hours):
 
Tides and Currents Weather Stations Pressure Air Temp Water Temp Dewpoint Dewpoint Depression Visibility Wind Speed Wind Dir Waves Ship Positions

Padre Island

Owner: Great Lakes Dredge & Dock Company, Oak Brook, IL. More information available from US FCC via Universal Licensing System and Coast Guard Vessel Documentation Center.

Last reported at 2017-Jan-20 07:32 UTC. Time now 2017-Jan-20 07:55 UTC.
Position N 36°50' W 076°16'.

Length 86 m; draft 19.6 m.

Type: Dredging. MMSI: 367525000.

Date/timePositionNaut miles runAvg speedWind from/ knotsBaromVisibWave heightAir tempDewpointWater temp
2017-Jan-20 07:32N 36°50' W 076°16'0 0.0
2017-Jan-20 06:32N 36°50' W 076°16'0 0.0
2017-Jan-20 05:32N 36°50' W 076°16'0 0.0
2017-Jan-20 04:32N 36°50' W 076°16'0 0.0
2017-Jan-20 03:32N 36°50' W 076°16'0 0.0
2017-Jan-20 02:32N 36°50' W 076°16'0 0.0
2017-Jan-20 01:32N 36°50' W 076°16'0 0.0
2017-Jan-20 00:29N 36°50' W 076°16'0 0.0
2017-Jan-19 23:32N 36°50' W 076°16'0 0.0
2017-Jan-19 22:32N 36°50' W 076°16'0 0.0
2017-Jan-19 21:32N 36°50' W 076°16'0 0.0
2017-Jan-19 20:32N 36°50' W 076°16'0 0.0
2017-Jan-19 19:32N 36°50' W 076°16'0 0.0
2017-Jan-19 18:32N 36°50' W 076°16'0 0.0
2017-Jan-19 17:32N 36°50' W 076°16'0 0.0
2017-Jan-19 16:32N 36°50' W 076°16'0 0.0
2017-Jan-19 15:29N 36°50' W 076°16'0 0.0
2017-Jan-19 14:32N 36°50' W 076°16'0 0.0
2017-Jan-19 13:32N 36°50' W 076°16'0 0.0
2017-Jan-19 12:32N 36°50' W 076°16'0 0.0
2017-Jan-19 11:32N 36°50' W 076°16'0 0.0
2017-Jan-19 10:29N 36°50' W 076°16'0 0.0
2017-Jan-19 09:32N 36°50' W 076°16'0 0.0
2017-Jan-19 08:32N 36°50' W 076°16'0 0.0
2017-Jan-19 07:32N 36°50' W 076°16'0 0.0
2017-Jan-19 06:32N 36°50' W 076°16'0 0.0
2017-Jan-19 05:32N 36°50' W 076°16'0 0.0
2017-Jan-19 04:32N 36°50' W 076°16'0 0.0
2017-Jan-19 03:32N 36°50' W 076°16'0 0.0
2017-Jan-19 02:32N 36°50' W 076°16'0 0.0
2017-Jan-19 01:32N 36°50' W 076°16'0 0.0
2017-Jan-19 00:32N 36°50' W 076°16'0 0.0
2017-Jan-18 23:32N 36°50' W 076°16'0 0.0
2017-Jan-18 22:32N 36°50' W 076°16'0 0.0
2017-Jan-18 21:32N 36°50' W 076°16'0 0.0
2017-Jan-18 20:32N 36°50' W 076°16'0 0.0
2017-Jan-18 19:32N 36°50' W 076°16'0 0.0
2017-Jan-18 18:32N 36°50' W 076°16'0 0.0
2017-Jan-18 17:32N 36°50' W 076°16'0 0.0
2017-Jan-18 16:32N 36°50' W 076°16'0 0.0
2017-Jan-18 15:32N 36°50' W 076°16'0 0.0
2017-Jan-18 14:32N 36°50' W 076°16'0 0.0
2017-Jan-18 13:23N 36°50' W 076°16'0 0.0
2017-Jan-18 12:32N 36°50' W 076°16'0 0.0
2017-Jan-18 11:32N 36°50' W 076°16'0 0.0
2017-Jan-18 10:32N 36°50' W 076°16'0 0.0
2017-Jan-18 09:32N 36°50' W 076°16'0 0.0
2017-Jan-18 08:32N 36°50' W 076°16'0 0.0
2017-Jan-18 07:32N 36°50' W 076°16'0 0.0
2017-Jan-18 06:29N 36°50' W 076°16'0 0.0
2017-Jan-18 05:32N 36°50' W 076°16'0 0.0
2017-Jan-18 04:32N 36°50' W 076°16'0 0.0
2017-Jan-18 03:29N 36°50' W 076°16'0 0.0
2017-Jan-18 02:29N 36°50' W 076°16'0 0.0
2017-Jan-18 01:32N 36°50' W 076°16'0 0.0
2017-Jan-18 00:32N 36°50' W 076°16'0 0.0
2017-Jan-17 23:32N 36°50' W 076°16'0 0.0
2017-Jan-17 22:32N 36°50' W 076°16'0 0.0
2017-Jan-17 21:34N 36°50' W 076°16'0 0.0
2017-Jan-17 20:34N 36°50' W 076°16'0 0.0
2017-Jan-17 19:34N 36°50' W 076°16'0 0.0
2017-Jan-17 18:33N 36°50' W 076°16'1 1.5
2017-Jan-17 17:33N 36°51' W 076°18'5 4.5
2017-Jan-17 16:28N 36°55' W 076°20'10 5.2
2017-Jan-17 14:29N 36°59' W 076°08'6 6.8
2017-Jan-17 13:33N 36°57' W 076°01'7 7.2
2017-Jan-17 12:32N 36°57' W 075°52'110 9.8
2017-Jan-17 01:18N 38°37' W 074°53'7 9.2
2017-Jan-17 00:30N 38°44' W 074°54'8 8.9
2017-Jan-16 23:33N 38°53' W 074°51'2 1.6
2017-Jan-16 22:29N 38°54' W 074°50'6 6.1
2017-Jan-16 21:33N 38°55' W 074°57'0 0.0
2017-Jan-16 20:26N 38°55' W 074°57'2 1.9
2017-Jan-16 19:33N 38°54' W 074°55'4 3.3
2017-Jan-16 18:24N 38°54' W 074°50'4 4.4
2017-Jan-16 17:24N 38°55' W 074°56'1 1.1
2017-Jan-16 16:21N 38°55' W 074°57'3 3.3
2017-Jan-16 15:32N 38°54' W 074°54'3 2.1
2017-Jan-16 14:21N 38°54' W 074°51'5 6.5
2017-Jan-16 13:33N 38°55' W 074°57'0 0.2
2017-Jan-16 12:29N 38°55' W 074°57'0 0.1
2017-Jan-16 09:33N 38°55' W 074°57'0 0.3
2017-Jan-16 08:26N 38°55' W 074°57'3 3.0
2017-Jan-16 07:24N 38°54' W 074°53'3 1.5
2017-Jan-16 05:19N 38°55' W 074°57'1 0.0
2017-Jan-15 13:27N 38°55' W 074°56'1 0.9
2017-Jan-15 12:32N 38°55' W 074°57'2 2.0
2017-Jan-15 11:31N 38°55' W 074°55'2 1.7
2017-Jan-15 10:32N 38°54' W 074°53'3 0.5
2017-Jan-15 05:16N 38°55' W 074°56'5 0.3
2017-Jan-14 15:29N 38°54' W 074°50'4 0.2
2017-Jan-13 13:20N 38°54' W 074°55'1 0.8
2017-Jan-13 12:32N 38°55' W 074°56'1 0.0
2017-Jan-12 08:13N 38°55' W 074°57'4 1.3
2017-Jan-12 05:23N 38°54' W 074°52'1 1.2
2017-Jan-12 04:32N 38°54' W 074°54'1 1.0
2017-Jan-12 03:28N 38°55' W 074°55'4 2.8
2017-Jan-12 02:05N 38°54' W 074°50'0 0.2
2017-Jan-11 23:22N 38°54' W 074°50'5 5.6
2017-Jan-11 22:31N 38°55' W 074°56'1 0.7
2017-Jan-11 21:26N 38°55' W 074°57'5 6.1
2017-Jan-11 20:33N 38°54' W 074°51'0 0.3
2017-Jan-11 19:33N 38°54' W 074°50'1 1.3
2017-Jan-11 18:31N 38°55' W 074°50'0 0.3
2017-Jan-11 17:33N 38°55' W 074°50'1 1.1
2017-Jan-11 16:33N 38°54' W 074°50'4 0.9
2017-Jan-11 12:19N 38°54' W 074°55'0 0.1
2017-Jan-11 05:22N 38°55' W 074°55'4 1.9
2017-Jan-11 03:17N 38°54' W 074°50'6 3.0
2017-Jan-11 01:29N 38°55' W 074°57'6 6.1
2017-Jan-11 00:33N 38°54' W 074°50'5 4.9
2017-Jan-10 23:33N 38°55' W 074°56'1 0.9
2017-Jan-10 22:33N 38°55' W 074°57'6 5.8
2017-Jan-10 21:33N 38°54' W 074°50'5 3.1
2017-Jan-10 20:04N 38°55' W 074°56'1 2.5
2017-Jan-10 19:33N 38°55' W 074°57'1 0.8
2017-Jan-10 18:33N 38°55' W 074°57'1 0.3
2017-Jan-10 16:22N 38°55' W 074°57'0 0.1
2017-Jan-10 15:33N 38°55' W 074°57'5 5.4
2017-Jan-10 14:33N 38°54' W 074°50'5 4.1
2017-Jan-10 13:13N 38°55' W 074°57'0 0.0
2017-Jan-10 12:27N 38°55' W 074°57'  
Track history (hours):
 
Tides and Currents Weather Stations Pressure Air Temp Water Temp Dewpoint Dewpoint Depression Visibility Wind Speed Wind Dir Waves Ship Positions

Padre Island

Owner: Great Lakes Dredge & Dock Company, Oak Brook, IL. More information available from US FCC via Universal Licensing System and Coast Guard Vessel Documentation Center.

Last reported at 2017-Jan-20 07:32 UTC. Time now 2017-Jan-20 07:55 UTC.
Position N 36°50' W 076°16'.

Length 86 m; draft 19.6 m.

Type: Dredging. MMSI: 367525000.

Date/timePositionNaut miles runAvg speedWind from/ knotsBaromVisibWave heightAir tempDewpointWater temp
2017-Jan-20 07:32N 36°50' W 076°16'0 0.0
2017-Jan-20 06:32N 36°50' W 076°16'0 0.0
2017-Jan-20 05:32N 36°50' W 076°16'0 0.0
2017-Jan-20 04:32N 36°50' W 076°16'0 0.0
2017-Jan-20 03:32N 36°50' W 076°16'0 0.0
2017-Jan-20 02:32N 36°50' W 076°16'0 0.0
2017-Jan-20 01:32N 36°50' W 076°16'0 0.0
2017-Jan-20 00:29N 36°50' W 076°16'0 0.0
2017-Jan-19 23:32N 36°50' W 076°16'0 0.0
2017-Jan-19 22:32N 36°50' W 076°16'0 0.0
2017-Jan-19 21:32N 36°50' W 076°16'0 0.0
2017-Jan-19 20:32N 36°50' W 076°16'0 0.0
2017-Jan-19 19:32N 36°50' W 076°16'0 0.0
2017-Jan-19 18:32N 36°50' W 076°16'0 0.0
2017-Jan-19 17:32N 36°50' W 076°16'0 0.0
2017-Jan-19 16:32N 36°50' W 076°16'0 0.0
2017-Jan-19 15:29N 36°50' W 076°16'0 0.0
2017-Jan-19 14:32N 36°50' W 076°16'0 0.0
2017-Jan-19 13:32N 36°50' W 076°16'0 0.0
2017-Jan-19 12:32N 36°50' W 076°16'0 0.0
2017-Jan-19 11:32N 36°50' W 076°16'0 0.0
2017-Jan-19 10:29N 36°50' W 076°16'0 0.0
2017-Jan-19 09:32N 36°50' W 076°16'0 0.0
2017-Jan-19 08:32N 36°50' W 076°16'0 0.0
2017-Jan-19 07:32N 36°50' W 076°16'0 0.0
2017-Jan-19 06:32N 36°50' W 076°16'0 0.0
2017-Jan-19 05:32N 36°50' W 076°16'0 0.0
2017-Jan-19 04:32N 36°50' W 076°16'0 0.0
2017-Jan-19 03:32N 36°50' W 076°16'0 0.0
2017-Jan-19 02:32N 36°50' W 076°16'0 0.0
2017-Jan-19 01:32N 36°50' W 076°16'0 0.0
2017-Jan-19 00:32N 36°50' W 076°16'0 0.0
2017-Jan-18 23:32N 36°50' W 076°16'0 0.0
2017-Jan-18 22:32N 36°50' W 076°16'0 0.0
2017-Jan-18 21:32N 36°50' W 076°16'0 0.0
2017-Jan-18 20:32N 36°50' W 076°16'0 0.0
2017-Jan-18 19:32N 36°50' W 076°16'0 0.0
2017-Jan-18 18:32N 36°50' W 076°16'0 0.0
2017-Jan-18 17:32N 36°50' W 076°16'0 0.0
2017-Jan-18 16:32N 36°50' W 076°16'0 0.0
2017-Jan-18 15:32N 36°50' W 076°16'0 0.0
2017-Jan-18 14:32N 36°50' W 076°16'0 0.0
2017-Jan-18 13:23N 36°50' W 076°16'0 0.0
2017-Jan-18 12:32N 36°50' W 076°16'0 0.0
2017-Jan-18 11:32N 36°50' W 076°16'0 0.0
2017-Jan-18 10:32N 36°50' W 076°16'0 0.0
2017-Jan-18 09:32N 36°50' W 076°16'0 0.0
2017-Jan-18 08:32N 36°50' W 076°16'0 0.0
2017-Jan-18 07:32N 36°50' W 076°16'0 0.0
2017-Jan-18 06:29N 36°50' W 076°16'0 0.0
2017-Jan-18 05:32N 36°50' W 076°16'0 0.0
2017-Jan-18 04:32N 36°50' W 076°16'0 0.0
2017-Jan-18 03:29N 36°50' W 076°16'0 0.0
2017-Jan-18 02:29N 36°50' W 076°16'0 0.0
2017-Jan-18 01:32N 36°50' W 076°16'0 0.0
2017-Jan-18 00:32N 36°50' W 076°16'0 0.0
2017-Jan-17 23:32N 36°50' W 076°16'0 0.0
2017-Jan-17 22:32N 36°50' W 076°16'0 0.0
2017-Jan-17 21:34N 36°50' W 076°16'0 0.0
2017-Jan-17 20:34N 36°50' W 076°16'0 0.0
2017-Jan-17 19:34N 36°50' W 076°16'0 0.0
2017-Jan-17 18:33N 36°50' W 076°16'1 1.5
2017-Jan-17 17:33N 36°51' W 076°18'5 4.5
2017-Jan-17 16:28N 36°55' W 076°20'10 5.2
2017-Jan-17 14:29N 36°59' W 076°08'6 6.8
2017-Jan-17 13:33N 36°57' W 076°01'7 7.2
2017-Jan-17 12:32N 36°57' W 075°52'110 9.8
2017-Jan-17 01:18N 38°37' W 074°53'7 9.2
2017-Jan-17 00:30N 38°44' W 074°54'8 8.9
2017-Jan-16 23:33N 38°53' W 074°51'2 1.6
2017-Jan-16 22:29N 38°54' W 074°50'6 6.1
2017-Jan-16 21:33N 38°55' W 074°57'0 0.0
2017-Jan-16 20:26N 38°55' W 074°57'2 1.9
2017-Jan-16 19:33N 38°54' W 074°55'4 3.3
2017-Jan-16 18:24N 38°54' W 074°50'4 4.4
2017-Jan-16 17:24N 38°55' W 074°56'1 1.1
2017-Jan-16 16:21N 38°55' W 074°57'3 3.3
2017-Jan-16 15:32N 38°54' W 074°54'3 2.1
2017-Jan-16 14:21N 38°54' W 074°51'5 6.5
2017-Jan-16 13:33N 38°55' W 074°57'0 0.2
2017-Jan-16 12:29N 38°55' W 074°57'0 0.1
2017-Jan-16 09:33N 38°55' W 074°57'0 0.3
2017-Jan-16 08:26N 38°55' W 074°57'3 3.0
2017-Jan-16 07:24N 38°54' W 074°53'3 1.5
2017-Jan-16 05:19N 38°55' W 074°57'1 0.0
2017-Jan-15 13:27N 38°55' W 074°56'1 0.9
2017-Jan-15 12:32N 38°55' W 074°57'2 2.0
2017-Jan-15 11:31N 38°55' W 074°55'2 1.7
2017-Jan-15 10:32N 38°54' W 074°53'3 0.5
2017-Jan-15 05:16N 38°55' W 074°56'5 0.3
2017-Jan-14 15:29N 38°54' W 074°50'4 0.2
2017-Jan-13 13:20N 38°54' W 074°55'1 0.8
2017-Jan-13 12:32N 38°55' W 074°56'1 0.0
2017-Jan-12 08:13N 38°55' W 074°57'4 1.3
2017-Jan-12 05:23N 38°54' W 074°52'1 1.2
2017-Jan-12 04:32N 38°54' W 074°54'1 1.0
2017-Jan-12 03:28N 38°55' W 074°55'4 2.8
2017-Jan-12 02:05N 38°54' W 074°50'0 0.2
2017-Jan-11 23:22N 38°54' W 074°50'5 5.6
2017-Jan-11 22:31N 38°55' W 074°56'1 0.7
2017-Jan-11 21:26N 38°55' W 074°57'5 6.1
2017-Jan-11 20:33N 38°54' W 074°51'0 0.3
2017-Jan-11 19:33N 38°54' W 074°50'1 1.3
2017-Jan-11 18:31N 38°55' W 074°50'0 0.3
2017-Jan-11 17:33N 38°55' W 074°50'1 1.1
2017-Jan-11 16:33N 38°54' W 074°50'4 0.9
2017-Jan-11 12:19N 38°54' W 074°55'0 0.1
2017-Jan-11 05:22N 38°55' W 074°55'4 1.9
2017-Jan-11 03:17N 38°54' W 074°50'6 3.0
2017-Jan-11 01:29N 38°55' W 074°57'6 6.1
2017-Jan-11 00:33N 38°54' W 074°50'5 4.9
2017-Jan-10 23:33N 38°55' W 074°56'1 0.9
2017-Jan-10 22:33N 38°55' W 074°57'6 5.8
2017-Jan-10 21:33N 38°54' W 074°50'5 3.1
2017-Jan-10 20:04N 38°55' W 074°56'1 2.5
2017-Jan-10 19:33N 38°55' W 074°57'1 0.8
2017-Jan-10 18:33N 38°55' W 074°57'1 0.3
2017-Jan-10 16:22N 38°55' W 074°57'0 0.1
2017-Jan-10 15:33N 38°55' W 074°57'5 5.4
2017-Jan-10 14:33N 38°54' W 074°50'5 4.1
2017-Jan-10 13:13N 38°55' W 074°57'0 0.0
2017-Jan-10 12:27N 38°55' W 074°57'  

Dump ship's entire track history